sensor_id;sensor_type;location;lat;lon;timestamp;temperature;humidity
63017;DHT22;50274;45.640;11.756;2022-07-29T00:01:07;26.20;53.90
63017;DHT22;50274;45.640;11.756;2022-07-29T00:03:33;26.00;55.10
63017;DHT22;50274;45.640;11.756;2022-07-29T00:05:59;25.80;56.70
63017;DHT22;50274;45.640;11.756;2022-07-29T00:08:25;25.60;57.50
63017;DHT22;50274;45.640;11.756;2022-07-29T00:10:51;25.40;57.50
63017;DHT22;50274;45.640;11.756;2022-07-29T00:13:16;25.20;59.80
63017;DHT22;50274;45.640;11.756;2022-07-29T00:15:42;25.10;59.80
63017;DHT22;50274;45.640;11.756;2022-07-29T00:18:08;24.90;60.20
63017;DHT22;50274;45.640;11.756;2022-07-29T00:20:34;24.70;60.10
63017;DHT22;50274;45.640;11.756;2022-07-29T00:22:59;24.60;60.70
63017;DHT22;50274;45.640;11.756;2022-07-29T00:25:25;24.50;60.60
63017;DHT22;50274;45.640;11.756;2022-07-29T00:27:51;24.50;61.20
63017;DHT22;50274;45.640;11.756;2022-07-29T00:30:17;24.50;61.60
63017;DHT22;50274;45.640;11.756;2022-07-29T00:32:43;24.40;61.80
63017;DHT22;50274;45.640;11.756;2022-07-29T00:35:09;24.40;61.90
63017;DHT22;50274;45.640;11.756;2022-07-29T00:37:53;24.30;62.00
63017;DHT22;50274;45.640;11.756;2022-07-29T00:40:19;24.30;62.10
63017;DHT22;50274;45.640;11.756;2022-07-29T00:42:46;24.30;62.30
63017;DHT22;50274;45.640;11.756;2022-07-29T00:45:14;24.30;62.30
63017;DHT22;50274;45.640;11.756;2022-07-29T00:47:40;24.30;62.30
63017;DHT22;50274;45.640;11.756;2022-07-29T00:50:07;24.40;62.50
63017;DHT22;50274;45.640;11.756;2022-07-29T00:52:38;24.50;63.00
63017;DHT22;50274;45.640;11.756;2022-07-29T00:55:05;24.50;62.60
63017;DHT22;50274;45.640;11.756;2022-07-29T00:57:31;24.60;62.50
63017;DHT22;50274;45.640;11.756;2022-07-29T00:59:57;24.60;62.40
63017;DHT22;50274;45.640;11.756;2022-07-29T01:02:23;24.60;62.50
63017;DHT22;50274;45.640;11.756;2022-07-29T01:04:49;24.60;62.30
63017;DHT22;50274;45.640;11.756;2022-07-29T01:07:15;24.70;62.10
63017;DHT22;50274;45.640;11.756;2022-07-29T01:09:42;24.70;62.00
63017;DHT22;50274;45.640;11.756;2022-07-29T01:12:09;24.70;62.10
63017;DHT22;50274;45.640;11.756;2022-07-29T01:14:36;24.80;62.20
63017;DHT22;50274;45.640;11.756;2022-07-29T01:17:10;24.80;61.90
63017;DHT22;50274;45.640;11.756;2022-07-29T01:30:44;24.50;63.60
63017;DHT22;50274;45.640;11.756;2022-07-29T01:33:15;24.50;64.20
63017;DHT22;50274;45.640;11.756;2022-07-29T01:36:07;24.50;64.60
63017;DHT22;50274;45.640;11.756;2022-07-29T01:38:39;24.40;64.20
63017;DHT22;50274;45.640;11.756;2022-07-29T01:41:09;24.40;64.10
63017;DHT22;50274;45.640;11.756;2022-07-29T01:43:41;24.40;64.00
63017;DHT22;50274;45.640;11.756;2022-07-29T01:46:14;24.40;64.00
63017;DHT22;50274;45.640;11.756;2022-07-29T01:48:47;24.40;63.70
63017;DHT22;50274;45.640;11.756;2022-07-29T01:51:20;24.40;63.60
63017;DHT22;50274;45.640;11.756;2022-07-29T01:53:55;24.40;63.40
63017;DHT22;50274;45.640;11.756;2022-07-29T01:56:24;24.50;63.40
63017;DHT22;50274;45.640;11.756;2022-07-29T01:58:55;24.50;63.10
63017;DHT22;50274;45.640;11.756;2022-07-29T02:01:24;24.50;62.90
63017;DHT22;50274;45.640;11.756;2022-07-29T02:03:50;24.40;62.90
63017;DHT22;50274;45.640;11.756;2022-07-29T02:06:21;24.40;62.70
63017;DHT22;50274;45.640;11.756;2022-07-29T02:08:49;24.30;62.50
63017;DHT22;50274;45.640;11.756;2022-07-29T02:11:16;24.30;62.40
63017;DHT22;50274;45.640;11.756;2022-07-29T02:13:43;24.30;62.30
63017;DHT22;50274;45.640;11.756;2022-07-29T02:16:10;24.30;62.10
63017;DHT22;50274;45.640;11.756;2022-07-29T02:18:39;24.30;62.20
63017;DHT22;50274;45.640;11.756;2022-07-29T02:21:06;24.30;62.10
63017;DHT22;50274;45.640;11.756;2022-07-29T02:23:34;24.30;62.00
63017;DHT22;50274;45.640;11.756;2022-07-29T02:26:01;24.30;62.00
63017;DHT22;50274;45.640;11.756;2022-07-29T02:28:29;24.30;62.00
63017;DHT22;50274;45.640;11.756;2022-07-29T02:30:59;24.30;61.90
63017;DHT22;50274;45.640;11.756;2022-07-29T02:33:26;24.40;61.90
63017;DHT22;50274;45.640;11.756;2022-07-29T02:35:55;24.40;61.80
63017;DHT22;50274;45.640;11.756;2022-07-29T02:38:22;24.40;61.80
63017;DHT22;50274;45.640;11.756;2022-07-29T02:41:14;24.40;61.80
63017;DHT22;50274;45.640;11.756;2022-07-29T02:43:43;24.40;61.90
63017;DHT22;50274;45.640;11.756;2022-07-29T02:46:14;24.30;62.00
63017;DHT22;50274;45.640;11.756;2022-07-29T02:48:51;24.30;62.10
63017;DHT22;50274;45.640;11.756;2022-07-29T02:51:28;24.30;62.20
63017;DHT22;50274;45.640;11.756;2022-07-29T02:53:57;24.20;62.20
63017;DHT22;50274;45.640;11.756;2022-07-29T02:56:27;24.30;62.20
63017;DHT22;50274;45.640;11.756;2022-07-29T02:58:56;24.30;62.20
63017;DHT22;50274;45.640;11.756;2022-07-29T03:01:24;24.30;62.10
63017;DHT22;50274;45.640;11.756;2022-07-29T03:03:52;24.40;62.10
63017;DHT22;50274;45.640;11.756;2022-07-29T03:06:21;24.40;62.20
63017;DHT22;50274;45.640;11.756;2022-07-29T03:08:48;24.40;62.20
63017;DHT22;50274;45.640;11.756;2022-07-29T03:11:15;24.30;62.30
63017;DHT22;50274;45.640;11.756;2022-07-29T03:13:42;24.20;62.40
63017;DHT22;50274;45.640;11.756;2022-07-29T03:16:09;24.20;62.60
63017;DHT22;50274;45.640;11.756;2022-07-29T03:18:36;24.20;62.70
63017;DHT22;50274;45.640;11.756;2022-07-29T03:21:03;24.20;62.80
63017;DHT22;50274;45.640;11.756;2022-07-29T03:23:28;24.20;63.00
63017;DHT22;50274;45.640;11.756;2022-07-29T03:25:54;24.10;63.10
63017;DHT22;50274;45.640;11.756;2022-07-29T03:28:21;24.10;63.40
63017;DHT22;50274;45.640;11.756;2022-07-29T03:30:47;24.00;63.40
63017;DHT22;50274;45.640;11.756;2022-07-29T03:33:13;23.90;63.60
63017;DHT22;50274;45.640;11.756;2022-07-29T03:35:39;23.90;63.70
63017;DHT22;50274;45.640;11.756;2022-07-29T03:38:05;23.90;63.70
63017;DHT22;50274;45.640;11.756;2022-07-29T03:43:13;23.80;63.80
63017;DHT22;50274;45.640;11.756;2022-07-29T03:45:44;23.80;63.80
63017;DHT22;50274;45.640;11.756;2022-07-29T03:48:13;23.80;63.80
63017;DHT22;50274;45.640;11.756;2022-07-29T03:50:40;23.80;63.80
63017;DHT22;50274;45.640;11.756;2022-07-29T03:53:07;23.80;63.80
63017;DHT22;50274;45.640;11.756;2022-07-29T03:55:37;23.80;63.80
63017;DHT22;50274;45.640;11.756;2022-07-29T03:58:06;23.90;63.80
63017;DHT22;50274;45.640;11.756;2022-07-29T04:00:34;23.90;63.70
63017;DHT22;50274;45.640;11.756;2022-07-29T04:03:01;23.90;63.70
63017;DHT22;50274;45.640;11.756;2022-07-29T04:05:27;23.90;63.70
63017;DHT22;50274;45.640;11.756;2022-07-29T04:07:52;23.80;63.80
63017;DHT22;50274;45.640;11.756;2022-07-29T04:10:18;23.80;63.80
63017;DHT22;50274;45.640;11.756;2022-07-29T04:12:44;23.80;63.90
63017;DHT22;50274;45.640;11.756;2022-07-29T04:15:11;23.80;63.80
63017;DHT22;50274;45.640;11.756;2022-07-29T04:17:37;23.90;63.60
63017;DHT22;50274;45.640;11.756;2022-07-29T04:20:04;23.80;63.40
63017;DHT22;50274;45.640;11.756;2022-07-29T04:22:30;23.80;63.40
63017;DHT22;50274;45.640;11.756;2022-07-29T04:24:56;23.80;63.30
63017;DHT22;50274;45.640;11.756;2022-07-29T04:27:22;23.80;63.00
63017;DHT22;50274;45.640;11.756;2022-07-29T04:29:47;23.80;63.00
63017;DHT22;50274;45.640;11.756;2022-07-29T04:32:13;23.80;63.00
63017;DHT22;50274;45.640;11.756;2022-07-29T04:34:39;23.80;63.10
63017;DHT22;50274;45.640;11.756;2022-07-29T04:37:05;23.80;63.10
63017;DHT22;50274;45.640;11.756;2022-07-29T04:39:31;23.80;63.10
63017;DHT22;50274;45.640;11.756;2022-07-29T04:41:57;23.90;63.00
63017;DHT22;50274;45.640;11.756;2022-07-29T04:44:22;23.90;62.90
63017;DHT22;50274;45.640;11.756;2022-07-29T04:46:48;24.00;62.80
63017;DHT22;50274;45.640;11.756;2022-07-29T04:49:14;24.00;62.80
63017;DHT22;50274;45.640;11.756;2022-07-29T04:51:40;24.00;62.70
63017;DHT22;50274;45.640;11.756;2022-07-29T04:54:06;24.00;62.60
63017;DHT22;50274;45.640;11.756;2022-07-29T04:56:32;24.10;62.60
63017;DHT22;50274;45.640;11.756;2022-07-29T04:58:57;24.10;62.50
63017;DHT22;50274;45.640;11.756;2022-07-29T05:01:23;24.10;62.40
63017;DHT22;50274;45.640;11.756;2022-07-29T05:03:49;24.10;62.30
63017;DHT22;50274;45.640;11.756;2022-07-29T05:06:15;24.10;62.30
63017;DHT22;50274;45.640;11.756;2022-07-29T05:08:41;24.10;62.10
63017;DHT22;50274;45.640;11.756;2022-07-29T05:11:06;24.10;62.10
63017;DHT22;50274;45.640;11.756;2022-07-29T05:13:32;24.20;62.00
63017;DHT22;50274;45.640;11.756;2022-07-29T05:15:58;24.30;61.90
63017;DHT22;50274;45.640;11.756;2022-07-29T05:18:25;24.30;61.80
63017;DHT22;50274;45.640;11.756;2022-07-29T05:20:51;24.40;61.70
63017;DHT22;50274;45.640;11.756;2022-07-29T05:23:17;24.50;61.70
63017;DHT22;50274;45.640;11.756;2022-07-29T05:25:43;24.60;61.60
63017;DHT22;50274;45.640;11.756;2022-07-29T05:28:09;24.60;61.40
63017;DHT22;50274;45.640;11.756;2022-07-29T05:30:35;24.70;61.30
63017;DHT22;50274;45.640;11.756;2022-07-29T05:33:01;24.70;61.10
63017;DHT22;50274;45.640;11.756;2022-07-29T05:35:26;24.80;61.10
63017;DHT22;50274;45.640;11.756;2022-07-29T05:37:52;24.90;61.20
63017;DHT22;50274;45.640;11.756;2022-07-29T05:40:18;25.00;61.10
63017;DHT22;50274;45.640;11.756;2022-07-29T05:42:44;25.00;61.00
63017;DHT22;50274;45.640;11.756;2022-07-29T05:45:10;25.10;60.90
63017;DHT22;50274;45.640;11.756;2022-07-29T05:47:36;25.10;61.00
63017;DHT22;50274;45.640;11.756;2022-07-29T05:50:02;25.20;61.00
63017;DHT22;50274;45.640;11.756;2022-07-29T05:52:29;25.30;61.00
63017;DHT22;50274;45.640;11.756;2022-07-29T05:54:55;25.40;60.90
63017;DHT22;50274;45.640;11.756;2022-07-29T05:57:23;25.50;60.70
63017;DHT22;50274;45.640;11.756;2022-07-29T05:59:50;25.60;60.60
63017;DHT22;50274;45.640;11.756;2022-07-29T06:02:16;25.70;60.40
63017;DHT22;50274;45.640;11.756;2022-07-29T06:04:43;25.80;60.40
63017;DHT22;50274;45.640;11.756;2022-07-29T06:07:08;25.90;60.20
63017;DHT22;50274;45.640;11.756;2022-07-29T06:09:34;26.00;60.10
63017;DHT22;50274;45.640;11.756;2022-07-29T06:12:01;26.10;60.00
63017;DHT22;50274;45.640;11.756;2022-07-29T06:14:27;26.10;59.70
63017;DHT22;50274;45.640;11.756;2022-07-29T06:16:54;26.20;59.60
63017;DHT22;50274;45.640;11.756;2022-07-29T06:19:20;26.40;59.40
63017;DHT22;50274;45.640;11.756;2022-07-29T06:21:46;26.50;59.30
63017;DHT22;50274;45.640;11.756;2022-07-29T06:24:13;26.60;59.30
63017;DHT22;50274;45.640;11.756;2022-07-29T06:26:40;26.60;59.10
63017;DHT22;50274;45.640;11.756;2022-07-29T06:29:07;26.70;58.80
63017;DHT22;50274;45.640;11.756;2022-07-29T06:31:33;26.80;58.70
63017;DHT22;50274;45.640;11.756;2022-07-29T06:33:59;26.90;58.70
63017;DHT22;50274;45.640;11.756;2022-07-29T06:36:25;26.90;58.70
63017;DHT22;50274;45.640;11.756;2022-07-29T06:38:50;27.00;58.60
63017;DHT22;50274;45.640;11.756;2022-07-29T06:41:16;27.10;58.30
63017;DHT22;50274;45.640;11.756;2022-07-29T06:43:44;27.10;58.10
63017;DHT22;50274;45.640;11.756;2022-07-29T06:46:11;27.20;57.90
63017;DHT22;50274;45.640;11.756;2022-07-29T06:48:38;27.20;57.70
63017;DHT22;50274;45.640;11.756;2022-07-29T06:51:06;27.30;57.50
63017;DHT22;50274;45.640;11.756;2022-07-29T06:53:33;27.30;57.50
63017;DHT22;50274;45.640;11.756;2022-07-29T06:56:00;27.40;57.30
63017;DHT22;50274;45.640;11.756;2022-07-29T06:58:27;27.60;57.10
63017;DHT22;50274;45.640;11.756;2022-07-29T07:00:53;27.60;56.80
63017;DHT22;50274;45.640;11.756;2022-07-29T07:03:19;27.70;56.50
63017;DHT22;50274;45.640;11.756;2022-07-29T07:05:45;27.80;56.00
63017;DHT22;50274;45.640;11.756;2022-07-29T07:08:11;27.90;55.90
63017;DHT22;50274;45.640;11.756;2022-07-29T07:10:38;28.00;55.70
63017;DHT22;50274;45.640;11.756;2022-07-29T07:13:04;28.00;55.10
63017;DHT22;50274;45.640;11.756;2022-07-29T07:15:30;28.10;54.70
63017;DHT22;50274;45.640;11.756;2022-07-29T07:17:56;28.10;54.60
63017;DHT22;50274;45.640;11.756;2022-07-29T07:20:24;28.10;54.50
63017;DHT22;50274;45.640;11.756;2022-07-29T07:22:50;28.10;54.20
63017;DHT22;50274;45.640;11.756;2022-07-29T07:25:15;28.10;53.80
63017;DHT22;50274;45.640;11.756;2022-07-29T07:27:43;28.20;53.50
63017;DHT22;50274;45.640;11.756;2022-07-29T07:30:09;28.30;53.10
63017;DHT22;50274;45.640;11.756;2022-07-29T07:32:35;28.40;52.60
63017;DHT22;50274;45.640;11.756;2022-07-29T07:35:03;28.60;52.40
63017;DHT22;50274;45.640;11.756;2022-07-29T07:37:29;28.60;52.20
63017;DHT22;50274;45.640;11.756;2022-07-29T07:39:55;28.70;51.90
63017;DHT22;50274;45.640;11.756;2022-07-29T07:42:21;28.80;51.80
63017;DHT22;50274;45.640;11.756;2022-07-29T07:44:47;28.90;51.50
63017;DHT22;50274;45.640;11.756;2022-07-29T07:47:14;29.10;51.10
63017;DHT22;50274;45.640;11.756;2022-07-29T07:49:41;29.10;51.00
63017;DHT22;50274;45.640;11.756;2022-07-29T07:52:06;29.10;50.60
63017;DHT22;50274;45.640;11.756;2022-07-29T07:54:32;29.10;50.10
63017;DHT22;50274;45.640;11.756;2022-07-29T07:56:58;29.20;49.90
63017;DHT22;50274;45.640;11.756;2022-07-29T07:59:24;29.20;49.80
63017;DHT22;50274;45.640;11.756;2022-07-29T08:01:50;29.30;50.10
63017;DHT22;50274;45.640;11.756;2022-07-29T08:04:20;29.40;49.50
63017;DHT22;50274;45.640;11.756;2022-07-29T08:06:47;29.40;49.00
63017;DHT22;50274;45.640;11.756;2022-07-29T08:09:15;29.50;48.50
63017;DHT22;50274;45.640;11.756;2022-07-29T08:11:41;29.50;48.40
63017;DHT22;50274;45.640;11.756;2022-07-29T08:14:07;29.50;48.10
63017;DHT22;50274;45.640;11.756;2022-07-29T08:16:33;29.50;47.80
63017;DHT22;50274;45.640;11.756;2022-07-29T08:18:59;29.40;48.00
63017;DHT22;50274;45.640;11.756;2022-07-29T08:21:25;29.30;48.10
63017;DHT22;50274;45.640;11.756;2022-07-29T08:23:51;29.30;48.30
63017;DHT22;50274;45.640;11.756;2022-07-29T08:26:44;29.20;48.50
63017;DHT22;50274;45.640;11.756;2022-07-29T08:29:10;29.20;49.00
63017;DHT22;50274;45.640;11.756;2022-07-29T08:31:37;29.20;49.10
63017;DHT22;50274;45.640;11.756;2022-07-29T08:34:03;29.20;49.10
63017;DHT22;50274;45.640;11.756;2022-07-29T08:36:30;29.20;48.80
63017;DHT22;50274;45.640;11.756;2022-07-29T08:38:56;29.20;48.70
63017;DHT22;50274;45.640;11.756;2022-07-29T08:41:22;29.20;48.90
63017;DHT22;50274;45.640;11.756;2022-07-29T08:43:49;29.20;49.10
63017;DHT22;50274;45.640;11.756;2022-07-29T08:46:16;29.30;49.10
63017;DHT22;50274;45.640;11.756;2022-07-29T08:48:43;29.40;48.60
63017;DHT22;50274;45.640;11.756;2022-07-29T08:51:16;29.50;48.10
63017;DHT22;50274;45.640;11.756;2022-07-29T08:53:44;29.50;47.80
63017;DHT22;50274;45.640;11.756;2022-07-29T08:56:18;29.60;47.60
63017;DHT22;50274;45.640;11.756;2022-07-29T08:58:45;29.80;47.40
63017;DHT22;50274;45.640;11.756;2022-07-29T09:01:16;30.00;47.30
63017;DHT22;50274;45.640;11.756;2022-07-29T09:03:44;30.10;47.20
63017;DHT22;50274;45.640;11.756;2022-07-29T09:06:17;30.20;46.50
63017;DHT22;50274;45.640;11.756;2022-07-29T09:08:44;30.30;45.80
63017;DHT22;50274;45.640;11.756;2022-07-29T09:11:11;30.50;45.30
63017;DHT22;50274;45.640;11.756;2022-07-29T09:13:37;30.60;45.10
63017;DHT22;50274;45.640;11.756;2022-07-29T09:16:03;30.60;45.10
63017;DHT22;50274;45.640;11.756;2022-07-29T09:18:41;30.70;45.30
63017;DHT22;50274;45.640;11.756;2022-07-29T09:21:15;30.80;44.70
63017;DHT22;50274;45.640;11.756;2022-07-29T09:24:19;30.90;44.30
63017;DHT22;50274;45.640;11.756;2022-07-29T09:26:46;31.00;43.90
63017;DHT22;50274;45.640;11.756;2022-07-29T09:29:17;31.10;43.70
63017;DHT22;50274;45.640;11.756;2022-07-29T09:31:45;31.30;43.60
63017;DHT22;50274;45.640;11.756;2022-07-29T09:34:12;31.40;42.30
63017;DHT22;50274;45.640;11.756;2022-07-29T09:36:47;31.60;41.60
63017;DHT22;50274;45.640;11.756;2022-07-29T09:39:15;31.60;41.00
63017;DHT22;50274;45.640;11.756;2022-07-29T09:41:48;31.60;41.70
63017;DHT22;50274;45.640;11.756;2022-07-29T09:44:15;31.50;42.20
63017;DHT22;50274;45.640;11.756;2022-07-29T09:47:02;31.60;41.90
63017;DHT22;50274;45.640;11.756;2022-07-29T09:49:32;31.60;41.70
63017;DHT22;50274;45.640;11.756;2022-07-29T09:52:00;31.60;40.70
63017;DHT22;50274;45.640;11.756;2022-07-29T09:54:27;31.60;40.50
63017;DHT22;50274;45.640;11.756;2022-07-29T09:56:54;31.60;40.70
63017;DHT22;50274;45.640;11.756;2022-07-29T09:59:21;31.70;38.60
63017;DHT22;50274;45.640;11.756;2022-07-29T10:01:49;31.90;39.00
63017;DHT22;50274;45.640;11.756;2022-07-29T10:04:16;32.00;39.10
63017;DHT22;50274;45.640;11.756;2022-07-29T10:07:01;32.10;38.70
63017;DHT22;50274;45.640;11.756;2022-07-29T10:09:28;32.00;39.50
63017;DHT22;50274;45.640;11.756;2022-07-29T10:12:11;32.10;39.50
63017;DHT22;50274;45.640;11.756;2022-07-29T10:14:40;32.30;40.10
63017;DHT22;50274;45.640;11.756;2022-07-29T10:17:07;32.60;39.30
63017;DHT22;50274;45.640;11.756;2022-07-29T10:19:35;32.70;39.40
63017;DHT22;50274;45.640;11.756;2022-07-29T10:22:03;32.80;39.70
63017;DHT22;50274;45.640;11.756;2022-07-29T10:24:31;32.90;39.60
63017;DHT22;50274;45.640;11.756;2022-07-29T10:26:59;33.00;39.50
63017;DHT22;50274;45.640;11.756;2022-07-29T10:29:25;33.10;39.30
63017;DHT22;50274;45.640;11.756;2022-07-29T10:43:41;33.40;36.90
63017;DHT22;50274;45.640;11.756;2022-07-29T10:46:08;33.50;36.50
63017;DHT22;50274;45.640;11.756;2022-07-29T10:48:35;33.60;36.80
63017;DHT22;50274;45.640;11.756;2022-07-29T10:51:21;33.60;36.20
63017;DHT22;50274;45.640;11.756;2022-07-29T10:53:49;33.60;35.90
63017;DHT22;50274;45.640;11.756;2022-07-29T10:56:29;33.70;36.40
63017;DHT22;50274;45.640;11.756;2022-07-29T11:01:53;34.00;36.00
63017;DHT22;50274;45.640;11.756;2022-07-29T11:07:11;34.10;36.30
63017;DHT22;50274;45.640;11.756;2022-07-29T11:09:38;34.20;36.60
63017;DHT22;50274;45.640;11.756;2022-07-29T11:15:05;34.40;36.20
63017;DHT22;50274;45.640;11.756;2022-07-29T11:20:41;34.50;34.70
63017;DHT22;50274;45.640;11.756;2022-07-29T11:23:29;34.60;35.40
63017;DHT22;50274;45.640;11.756;2022-07-29T11:26:24;34.70;35.70
63017;DHT22;50274;45.640;11.756;2022-07-29T11:29:03;35.00;35.50
63017;DHT22;50274;45.640;11.756;2022-07-29T11:31:38;35.10;34.90
63017;DHT22;50274;45.640;11.756;2022-07-29T11:39:38;35.30;35.20
63017;DHT22;50274;45.640;11.756;2022-07-29T11:45:02;35.70;35.20
63017;DHT22;50274;45.640;11.756;2022-07-29T11:47:34;35.80;34.70
63017;DHT22;50274;45.640;11.756;2022-07-29T11:50:01;35.80;34.50
63017;DHT22;50274;45.640;11.756;2022-07-29T11:52:45;35.70;34.00
63017;DHT22;50274;45.640;11.756;2022-07-29T11:55:16;35.70;34.40
63017;DHT22;50274;45.640;11.756;2022-07-29T11:57:52;35.80;34.70
63017;DHT22;50274;45.640;11.756;2022-07-29T12:00:31;35.90;34.70
63017;DHT22;50274;45.640;11.756;2022-07-29T12:02:58;36.10;34.60
63017;DHT22;50274;45.640;11.756;2022-07-29T12:05:45;36.20;34.70
63017;DHT22;50274;45.640;11.756;2022-07-29T12:08:16;36.40;34.20
63017;DHT22;50274;45.640;11.756;2022-07-29T12:10:46;36.40;33.90
63017;DHT22;50274;45.640;11.756;2022-07-29T12:13:13;36.40;33.70
63017;DHT22;50274;45.640;11.756;2022-07-29T12:15:40;36.60;34.10
63017;DHT22;50274;45.640;11.756;2022-07-29T12:18:25;36.70;33.60
63017;DHT22;50274;45.640;11.756;2022-07-29T12:20:59;36.80;33.30
63017;DHT22;50274;45.640;11.756;2022-07-29T12:23:25;36.70;32.70
63017;DHT22;50274;45.640;11.756;2022-07-29T12:25:51;36.80;32.80
63017;DHT22;50274;45.640;11.756;2022-07-29T12:28:17;36.90;32.80
63017;DHT22;50274;45.640;11.756;2022-07-29T12:30:48;37.10;32.80
63017;DHT22;50274;45.640;11.756;2022-07-29T12:35:41;37.00;32.20
63017;DHT22;50274;45.640;11.756;2022-07-29T12:38:09;37.10;32.60
63017;DHT22;50274;45.640;11.756;2022-07-29T12:40:36;37.20;32.80
63017;DHT22;50274;45.640;11.756;2022-07-29T12:43:10;37.20;32.30
63017;DHT22;50274;45.640;11.756;2022-07-29T12:45:38;37.30;32.20
63017;DHT22;50274;45.640;11.756;2022-07-29T12:48:05;37.20;31.80
63017;DHT22;50274;45.640;11.756;2022-07-29T12:50:32;36.90;31.60
63017;DHT22;50274;45.640;11.756;2022-07-29T12:53:11;36.80;31.80
63017;DHT22;50274;45.640;11.756;2022-07-29T12:55:48;36.70;31.70
63017;DHT22;50274;45.640;11.756;2022-07-29T12:58:30;36.70;31.30
63017;DHT22;50274;45.640;11.756;2022-07-29T13:01:06;36.90;31.60
63017;DHT22;50274;45.640;11.756;2022-07-29T13:04:02;36.90;31.40
63017;DHT22;50274;45.640;11.756;2022-07-29T13:06:44;37.00;31.00
63017;DHT22;50274;45.640;11.756;2022-07-29T13:09:15;37.10;31.40
63017;DHT22;50274;45.640;11.756;2022-07-29T13:11:49;37.10;30.90
63017;DHT22;50274;45.640;11.756;2022-07-29T13:14:35;37.20;31.70
63017;DHT22;50274;45.640;11.756;2022-07-29T13:17:03;37.20;31.40
63017;DHT22;50274;45.640;11.756;2022-07-29T13:19:41;37.20;31.20
63017;DHT22;50274;45.640;11.756;2022-07-29T13:22:11;37.20;31.10
63017;DHT22;50274;45.640;11.756;2022-07-29T13:25:00;37.30;31.10
63017;DHT22;50274;45.640;11.756;2022-07-29T13:27:30;37.60;30.80
63017;DHT22;50274;45.640;11.756;2022-07-29T13:29:59;37.70;31.00
63017;DHT22;50274;45.640;11.756;2022-07-29T13:32:29;37.70;30.80
63017;DHT22;50274;45.640;11.756;2022-07-29T13:34:56;37.90;31.00
63017;DHT22;50274;45.640;11.756;2022-07-29T13:37:23;38.00;31.10
63017;DHT22;50274;45.640;11.756;2022-07-29T13:39:48;38.00;30.80
63017;DHT22;50274;45.640;11.756;2022-07-29T13:42:14;37.90;30.70
63017;DHT22;50274;45.640;11.756;2022-07-29T13:44:40;37.90;30.90
63017;DHT22;50274;45.640;11.756;2022-07-29T13:47:07;37.90;30.70
63017;DHT22;50274;45.640;11.756;2022-07-29T13:49:34;37.80;30.80
63017;DHT22;50274;45.640;11.756;2022-07-29T13:52:00;37.70;30.50
63017;DHT22;50274;45.640;11.756;2022-07-29T13:54:29;37.70;30.60
63017;DHT22;50274;45.640;11.756;2022-07-29T13:56:54;37.60;30.60
63017;DHT22;50274;45.640;11.756;2022-07-29T13:59:20;37.60;31.00
63017;DHT22;50274;45.640;11.756;2022-07-29T14:01:46;37.60;31.30
63017;DHT22;50274;45.640;11.756;2022-07-29T14:04:12;37.70;31.10
63017;DHT22;50274;45.640;11.756;2022-07-29T14:06:38;37.70;31.10
63017;DHT22;50274;45.640;11.756;2022-07-29T14:09:04;37.70;31.20
63017;DHT22;50274;45.640;11.756;2022-07-29T14:11:36;37.70;31.30
63017;DHT22;50274;45.640;11.756;2022-07-29T14:14:04;37.80;31.30
63017;DHT22;50274;45.640;11.756;2022-07-29T14:16:29;37.90;31.40
63017;DHT22;50274;45.640;11.756;2022-07-29T14:18:55;37.90;31.40
63017;DHT22;50274;45.640;11.756;2022-07-29T14:21:21;38.00;30.60
63017;DHT22;50274;45.640;11.756;2022-07-29T14:23:47;37.90;31.10
63017;DHT22;50274;45.640;11.756;2022-07-29T14:26:13;37.80;30.20
63017;DHT22;50274;45.640;11.756;2022-07-29T14:28:39;37.70;30.50
63017;DHT22;50274;45.640;11.756;2022-07-29T14:31:05;37.60;30.80
63017;DHT22;50274;45.640;11.756;2022-07-29T14:33:31;37.60;31.00
63017;DHT22;50274;45.640;11.756;2022-07-29T14:35:57;37.50;31.10
63017;DHT22;50274;45.640;11.756;2022-07-29T14:38:22;37.30;30.80
63017;DHT22;50274;45.640;11.756;2022-07-29T14:40:49;37.10;30.90
63017;DHT22;50274;45.640;11.756;2022-07-29T14:43:15;36.80;31.00
63017;DHT22;50274;45.640;11.756;2022-07-29T14:45:40;36.60;31.50
63017;DHT22;50274;45.640;11.756;2022-07-29T14:48:06;36.40;31.90
63017;DHT22;50274;45.640;11.756;2022-07-29T14:50:32;36.10;32.60
63017;DHT22;50274;45.640;11.756;2022-07-29T14:52:59;35.80;32.80
63017;DHT22;50274;45.640;11.756;2022-07-29T14:55:25;35.60;33.20
63017;DHT22;50274;45.640;11.756;2022-07-29T14:57:51;35.50;33.30
63017;DHT22;50274;45.640;11.756;2022-07-29T15:00:17;35.30;33.30
63017;DHT22;50274;45.640;11.756;2022-07-29T15:02:43;35.10;33.90
63017;DHT22;50274;45.640;11.756;2022-07-29T15:05:09;35.00;34.30
63017;DHT22;50274;45.640;11.756;2022-07-29T15:07:35;34.80;33.90
63017;DHT22;50274;45.640;11.756;2022-07-29T15:10:01;34.70;34.10
63017;DHT22;50274;45.640;11.756;2022-07-29T15:12:30;34.70;34.30
63017;DHT22;50274;45.640;11.756;2022-07-29T15:14:56;34.60;34.50
63017;DHT22;50274;45.640;11.756;2022-07-29T15:17:21;34.60;34.80
63017;DHT22;50274;45.640;11.756;2022-07-29T15:19:47;34.50;34.70
63017;DHT22;50274;45.640;11.756;2022-07-29T15:22:13;34.40;34.50
63017;DHT22;50274;45.640;11.756;2022-07-29T15:24:39;34.30;34.70
63017;DHT22;50274;45.640;11.756;2022-07-29T15:27:05;34.20;35.00
63017;DHT22;50274;45.640;11.756;2022-07-29T15:29:30;34.10;35.20
63017;DHT22;50274;45.640;11.756;2022-07-29T15:31:56;34.10;35.30
63017;DHT22;50274;45.640;11.756;2022-07-29T15:34:22;34.00;35.30
63017;DHT22;50274;45.640;11.756;2022-07-29T15:36:51;33.90;35.50
63017;DHT22;50274;45.640;11.756;2022-07-29T15:39:17;33.90;35.40
63017;DHT22;50274;45.640;11.756;2022-07-29T15:41:43;33.90;35.20
63017;DHT22;50274;45.640;11.756;2022-07-29T15:44:09;33.80;35.50
63017;DHT22;50274;45.640;11.756;2022-07-29T15:46:35;33.70;35.70
63017;DHT22;50274;45.640;11.756;2022-07-29T15:49:19;33.60;36.00
63017;DHT22;50274;45.640;11.756;2022-07-29T15:51:45;33.50;35.90
63017;DHT22;50274;45.640;11.756;2022-07-29T15:54:10;33.40;36.20
63017;DHT22;50274;45.640;11.756;2022-07-29T15:56:37;33.30;36.60
63017;DHT22;50274;45.640;11.756;2022-07-29T15:59:03;33.20;36.60
63017;DHT22;50274;45.640;11.756;2022-07-29T16:01:29;33.10;36.70
63017;DHT22;50274;45.640;11.756;2022-07-29T16:03:54;33.00;36.90
63017;DHT22;50274;45.640;11.756;2022-07-29T16:06:22;32.90;37.10
63017;DHT22;50274;45.640;11.756;2022-07-29T16:08:47;32.80;37.40
63017;DHT22;50274;45.640;11.756;2022-07-29T16:11:13;32.80;37.60